createdAt,value
2018-03-28T00:00:48.093Z,6.30
2018-03-28T00:03:16.790Z,6.30
2018-03-28T00:05:44.651Z,6.20
2018-03-28T00:08:12.467Z,6.20
2018-03-28T00:10:40.499Z,6.30
2018-03-28T00:13:08.203Z,6.20
2018-03-28T00:15:35.932Z,6.20
2018-03-28T00:18:03.779Z,6.20
2018-03-28T00:20:31.659Z,6.10
2018-03-28T00:22:59.422Z,6.20
2018-03-28T00:25:27.233Z,6.10
2018-03-28T00:27:55.080Z,6.10
2018-03-28T00:30:23.642Z,6.10
2018-03-28T00:32:52.222Z,6.10
2018-03-28T00:35:19.992Z,6.00
2018-03-28T00:37:47.742Z,6.10
2018-03-28T00:40:15.490Z,6.00
2018-03-28T00:42:43.311Z,6.00
2018-03-28T00:45:12.137Z,6.00
2018-03-28T00:47:39.905Z,6.00
2018-03-28T00:50:07.697Z,6.00
2018-03-28T00:52:35.441Z,6.00
2018-03-28T00:55:03.416Z,5.90
2018-03-28T00:57:31.139Z,5.90
2018-03-28T00:59:58.918Z,5.90
2018-03-28T01:02:26.917Z,5.90
2018-03-28T01:04:54.691Z,5.90
2018-03-28T01:07:22.429Z,5.90
2018-03-28T01:09:50.298Z,5.90
2018-03-28T01:12:18.090Z,5.90
2018-03-28T01:14:45.836Z,5.90
2018-03-28T01:17:13.911Z,5.90
2018-03-28T01:19:41.848Z,5.80
2018-03-28T01:22:09.848Z,5.90
2018-03-28T01:24:37.592Z,5.80
2018-03-28T01:27:05.443Z,5.80
2018-03-28T01:29:33.193Z,5.80
2018-03-28T01:32:01.112Z,5.80
2018-03-28T01:34:28.915Z,5.80
2018-03-28T01:36:57.446Z,5.70
2018-03-28T01:39:25.399Z,5.70
2018-03-28T01:44:28.012Z,5.70
2018-03-28T01:46:55.803Z,5.70
2018-03-28T01:49:23.777Z,5.80
2018-03-28T01:51:51.623Z,5.80
2018-03-28T01:54:19.525Z,5.80
2018-03-28T01:56:48.079Z,5.80
2018-03-28T01:59:15.830Z,5.80
2018-03-28T02:01:43.572Z,5.80
2018-03-28T02:04:11.443Z,5.80
2018-03-28T02:06:39.195Z,5.70
2018-03-28T02:09:07.101Z,5.70
2018-03-28T02:11:35.020Z,5.70
2018-03-28T02:14:02.940Z,5.70
2018-03-28T02:16:30.786Z,5.70
2018-03-28T02:18:58.635Z,5.60
2018-03-28T02:21:26.373Z,5.60
2018-03-28T02:23:54.891Z,5.60
2018-03-28T02:26:22.755Z,5.60
2018-03-28T02:28:50.515Z,5.50
2018-03-28T02:31:18.268Z,5.60
2018-03-28T02:33:46.072Z,5.60
2018-03-28T02:36:13.862Z,5.50
2018-03-28T02:38:41.628Z,5.50
2018-03-28T02:41:09.404Z,5.50
2018-03-28T02:43:37.908Z,5.40
2018-03-28T02:46:05.637Z,5.40
2018-03-28T02:48:33.463Z,5.50
2018-03-28T02:51:01.233Z,5.50
2018-03-28T02:53:29.013Z,5.50
2018-03-28T02:55:56.784Z,5.50
2018-03-28T02:58:24.554Z,5.50
2018-03-28T03:00:52.274Z,5.50
2018-03-28T03:03:20.180Z,5.50
2018-03-28T03:05:47.920Z,5.50
2018-03-28T03:08:15.812Z,5.40
2018-03-28T03:10:43.599Z,5.40
2018-03-28T03:13:11.355Z,5.30
2018-03-28T03:15:39.135Z,5.20
2018-03-28T03:18:07.706Z,5.20
2018-03-28T03:20:35.554Z,5.20
2018-03-28T03:23:04.070Z,5.10
2018-03-28T03:25:32.601Z,5.10
2018-03-28T03:28:00.374Z,5.10
2018-03-28T03:30:28.255Z,5.10
2018-03-28T03:32:56.121Z,5.10
2018-03-28T03:35:23.895Z,5.10
2018-03-28T03:37:51.678Z,5.20
2018-03-28T03:40:20.428Z,5.20
2018-03-28T03:42:48.237Z,5.20
2018-03-28T03:45:16.827Z,5.20
2018-03-28T03:47:44.644Z,5.20
2018-03-28T03:50:13.247Z,5.20
2018-03-28T03:52:40.964Z,5.20
2018-03-28T03:55:08.759Z,5.20
2018-03-28T03:57:36.567Z,5.20
2018-03-28T04:00:04.419Z,5.20
2018-03-28T04:02:32.975Z,5.30
2018-03-28T04:05:00.854Z,5.20
2018-03-28T04:07:28.606Z,5.10
2018-03-28T04:09:56.418Z,5.10
2018-03-28T04:12:24.132Z,5.10
2018-03-28T04:14:51.858Z,5.00
2018-03-28T04:17:19.626Z,5.00
2018-03-28T04:19:47.535Z,5.00
2018-03-28T04:22:15.404Z,5.00
2018-03-28T04:24:43.360Z,5.00
2018-03-28T04:27:11.239Z,5.00
2018-03-28T04:29:39.096Z,5.00
2018-03-28T04:32:06.892Z,5.00
2018-03-28T04:34:35.591Z,5.00
2018-03-28T04:37:03.346Z,4.90
2018-03-28T04:39:32.001Z,5.00
2018-03-28T04:41:59.832Z,5.00
2018-03-28T04:44:27.580Z,5.00
2018-03-28T04:46:55.419Z,5.00
2018-03-28T04:49:23.294Z,4.90
2018-03-28T04:51:52.133Z,4.80
2018-03-28T04:54:20.320Z,4.80
2018-03-28T04:56:49.031Z,4.80
2018-03-28T04:59:17.617Z,4.80
2018-03-28T05:01:45.575Z,4.80
2018-03-28T05:04:13.484Z,4.80
2018-03-28T05:06:42.167Z,4.80
2018-03-28T05:09:10.763Z,4.80
2018-03-28T05:11:38.576Z,4.80
2018-03-28T05:14:07.164Z,4.80
2018-03-28T05:16:34.922Z,4.70
2018-03-28T05:19:02.744Z,4.70
2018-03-28T05:21:30.955Z,4.80
2018-03-28T05:23:58.840Z,4.80
2018-03-28T05:26:26.706Z,4.90
2018-03-28T05:28:54.456Z,5.00
2018-03-28T05:31:22.267Z,5.00
2018-03-28T05:33:50.862Z,5.00
2018-03-28T05:36:18.593Z,4.90
2018-03-28T05:38:47.239Z,4.90
2018-03-28T05:41:15.040Z,4.90
2018-03-28T05:43:42.851Z,4.90
2018-03-28T05:46:10.740Z,4.90
2018-03-28T05:48:38.497Z,4.90
2018-03-28T05:51:06.360Z,4.90
2018-03-28T05:53:34.132Z,4.90
2018-03-28T05:56:01.859Z,5.00
2018-03-28T05:58:30.420Z,5.00
2018-03-28T06:00:59.016Z,5.10
2018-03-28T06:03:27.625Z,5.10
2018-03-28T06:05:55.366Z,5.10
2018-03-28T06:08:23.911Z,5.00
2018-03-28T06:10:51.777Z,5.00
2018-03-28T06:13:19.846Z,5.10
2018-03-28T06:15:47.984Z,5.20
2018-03-28T06:18:15.770Z,5.40
2018-03-28T06:20:43.755Z,5.40
2018-03-28T06:23:11.554Z,5.40
2018-03-28T06:25:40.102Z,5.40
2018-03-28T06:28:07.838Z,5.50
2018-03-28T06:30:35.747Z,5.40
2018-03-28T06:33:03.547Z,5.50
2018-03-28T06:35:32.094Z,5.50
2018-03-28T06:37:59.966Z,5.50
2018-03-28T06:40:27.683Z,5.60
2018-03-28T06:42:56.468Z,5.60
2018-03-28T06:45:24.357Z,5.60
2018-03-28T06:47:52.147Z,5.60
2018-03-28T06:50:19.982Z,5.60
2018-03-28T06:52:47.775Z,5.70
2018-03-28T06:55:15.612Z,5.70
2018-03-28T06:57:43.519Z,5.80
2018-03-28T07:00:11.526Z,5.90
2018-03-28T07:02:39.335Z,6.00
2018-03-28T07:05:07.316Z,6.00
2018-03-28T07:07:35.209Z,6.00
2018-03-28T07:10:03.003Z,6.10
2018-03-28T07:12:30.903Z,6.10
2018-03-28T07:14:58.841Z,6.10
2018-03-28T07:17:26.683Z,6.20
2018-03-28T07:19:55.259Z,6.10
2018-03-28T07:22:23.999Z,6.00
2018-03-28T07:24:52.506Z,6.00
2018-03-28T07:27:20.471Z,6.00
2018-03-28T07:29:48.299Z,6.00
2018-03-28T07:32:16.104Z,6.10
2018-03-28T07:34:43.944Z,6.10
2018-03-28T07:37:11.762Z,6.20
2018-03-28T07:39:40.326Z,6.30
2018-03-28T07:42:08.961Z,6.40
2018-03-28T07:44:36.771Z,6.40
2018-03-28T07:47:04.577Z,6.40
2018-03-28T07:49:32.363Z,6.30
2018-03-28T07:52:00.191Z,6.30
2018-03-28T07:54:28.759Z,6.40
2018-03-28T07:56:56.487Z,6.40
2018-03-28T07:59:24.402Z,6.50
2018-03-28T08:01:53.019Z,6.60
2018-03-28T08:04:20.919Z,6.60
2018-03-28T08:06:49.008Z,6.70
2018-03-28T08:09:16.770Z,6.70
2018-03-28T08:11:44.799Z,6.70
2018-03-28T08:14:12.659Z,6.70
2018-03-28T08:16:40.405Z,6.70
2018-03-28T08:19:08.971Z,6.90
2018-03-28T08:21:37.589Z,7.00
2018-03-28T08:24:05.378Z,6.90
2018-03-28T08:26:33.171Z,7.00
2018-03-28T08:29:01.103Z,7.10
2018-03-28T08:31:29.742Z,7.20
2018-03-28T08:33:57.680Z,7.20
2018-03-28T08:36:25.483Z,7.20
2018-03-28T08:38:54.149Z,7.10
2018-03-28T08:41:21.929Z,7.10
2018-03-28T08:43:50.536Z,7.20
2018-03-28T08:46:18.377Z,7.10
2018-03-28T08:48:46.930Z,7.20
2018-03-28T08:51:14.805Z,7.20
2018-03-28T08:53:42.561Z,7.20
2018-03-28T08:56:10.366Z,7.30
2018-03-28T08:58:39.277Z,7.50
2018-03-28T09:01:07.103Z,7.50
2018-03-28T09:03:34.940Z,7.50
2018-03-28T09:06:02.802Z,7.70
2018-03-28T09:08:30.612Z,7.80
2018-03-28T09:10:59.116Z,8.20
2018-03-28T09:13:27.152Z,8.10
2018-03-28T09:15:54.947Z,8.40
2018-03-28T09:18:22.753Z,8.60
2018-03-28T09:20:50.613Z,8.70
2018-03-28T09:23:18.371Z,8.80
2018-03-28T09:25:46.195Z,9.00
2018-03-28T09:28:14.728Z,9.30
2018-03-28T09:30:42.576Z,9.30
2018-03-28T09:33:10.385Z,9.40
2018-03-28T09:35:38.317Z,9.60
2018-03-28T09:38:06.195Z,9.80
2018-03-28T09:40:34.096Z,9.90
2018-03-28T09:43:01.989Z,10.00
2018-03-28T09:45:30.766Z,10.30
2018-03-28T09:47:59.388Z,10.50
2018-03-28T09:50:27.332Z,10.50
2018-03-28T09:52:55.908Z,10.80
2018-03-28T09:55:24.700Z,11.00
2018-03-28T09:57:53.388Z,11.10
2018-03-28T10:00:30.449Z,11.20
2018-03-28T10:03:03.891Z,11.20
2018-03-28T10:05:37.275Z,11.40
2018-03-28T10:08:05.145Z,11.50
2018-03-28T10:10:32.931Z,11.80
2018-03-28T10:13:00.728Z,11.90
2018-03-28T10:15:28.606Z,12.00
2018-03-28T10:17:57.216Z,12.20
2018-03-28T10:20:25.065Z,12.20
2018-03-28T10:22:53.052Z,12.30
2018-03-28T10:25:21.743Z,12.50
2018-03-28T10:27:49.580Z,12.50
2018-03-28T10:30:17.488Z,12.60
2018-03-28T10:32:45.278Z,12.70
2018-03-28T10:35:13.169Z,12.70
2018-03-28T10:37:40.939Z,12.90
2018-03-28T10:40:08.744Z,13.00
2018-03-28T10:42:36.548Z,13.20
2018-03-28T10:45:04.456Z,13.30
2018-03-28T10:47:33.004Z,13.70
2018-03-28T10:50:00.799Z,13.70
2018-03-28T10:52:29.458Z,14.10
2018-03-28T10:54:57.319Z,14.10
2018-03-28T10:57:25.172Z,14.30
2018-03-28T10:59:53.050Z,14.20
2018-03-28T11:02:20.958Z,13.90
2018-03-28T11:04:49.578Z,13.80
2018-03-28T11:07:17.484Z,13.80
2018-03-28T11:09:45.376Z,13.90
2018-03-28T11:12:13.907Z,14.00
2018-03-28T11:14:41.800Z,14.10
2018-03-28T11:17:09.548Z,14.10
2018-03-28T11:19:37.351Z,14.30
2018-03-28T11:22:05.977Z,14.70
2018-03-28T11:24:33.800Z,14.70
2018-03-28T11:27:01.650Z,15.00
2018-03-28T11:29:29.460Z,15.40
2018-03-28T11:31:57.266Z,15.70
2018-03-28T11:34:25.138Z,16.00
2018-03-28T11:36:52.924Z,16.30
2018-03-28T11:39:21.565Z,16.80
2018-03-28T11:41:49.382Z,16.70
2018-03-28T11:44:17.916Z,17.30
2018-03-28T11:46:45.768Z,17.20
2018-03-28T11:49:13.542Z,17.40
2018-03-28T11:51:41.367Z,17.70
2018-03-28T11:54:09.976Z,18.10
2018-03-28T11:56:37.783Z,18.10
2018-03-28T11:59:05.739Z,18.30
2018-03-28T12:01:33.531Z,18.40
2018-03-28T12:04:01.303Z,18.50
2018-03-28T12:06:29.169Z,18.50
2018-03-28T12:08:56.965Z,18.40
2018-03-28T12:11:24.783Z,18.20
2018-03-28T12:13:52.760Z,18.10
2018-03-28T12:16:20.601Z,18.00
2018-03-28T12:18:48.485Z,18.00
2018-03-28T12:21:17.419Z,17.70
2018-03-28T12:23:45.979Z,17.60
2018-03-28T12:26:13.819Z,17.60
2018-03-28T12:28:41.587Z,17.70
2018-03-28T12:31:09.469Z,17.80
2018-03-28T12:33:37.318Z,18.00
2018-03-28T12:36:05.291Z,18.10
2018-03-28T12:38:33.337Z,17.90
2018-03-28T12:41:01.073Z,17.80
2018-03-28T12:43:29.638Z,17.90
2018-03-28T12:45:57.410Z,17.90
2018-03-28T12:48:25.932Z,18.40
2018-03-28T12:50:53.893Z,18.40
2018-03-28T12:53:22.488Z,19.00
2018-03-28T12:55:50.290Z,19.00
2018-03-28T12:58:18.180Z,19.30
2018-03-28T13:00:46.034Z,19.50
2018-03-28T13:03:14.700Z,19.90
2018-03-28T13:05:43.371Z,20.20
2018-03-28T13:08:11.243Z,20.20
2018-03-28T13:10:39.511Z,20.50
2018-03-28T13:13:07.339Z,20.40
2018-03-28T13:15:35.224Z,20.10
2018-03-28T13:18:02.971Z,19.80
2018-03-28T13:20:30.775Z,19.70
2018-03-28T13:22:58.565Z,19.90
2018-03-28T13:25:26.364Z,20.10
2018-03-28T13:27:55.003Z,20.20
2018-03-28T13:30:23.052Z,20.20
2018-03-28T13:32:50.784Z,20.00
2018-03-28T13:35:18.726Z,20.30
2018-03-28T13:37:46.479Z,20.60
2018-03-28T13:40:14.192Z,21.20
2018-03-28T13:42:42.027Z,21.70
2018-03-28T13:45:09.809Z,22.50
2018-03-28T13:47:37.718Z,23.60
2018-03-28T13:50:05.543Z,24.20
2018-03-28T13:52:34.153Z,24.90
2018-03-28T13:55:01.954Z,24.90
2018-03-28T13:57:29.791Z,26.10
2018-03-28T13:59:57.598Z,27.10
2018-03-28T14:02:25.560Z,26.40
2018-03-28T14:04:54.184Z,25.40
2018-03-28T14:07:22.089Z,25.40
2018-03-28T14:09:50.019Z,25.40
2018-03-28T14:12:17.801Z,25.50
2018-03-28T14:14:45.599Z,25.80
2018-03-28T14:17:13.404Z,25.70
2018-03-28T14:19:42.024Z,25.90
2018-03-28T14:22:09.887Z,25.90
2018-03-28T14:24:37.708Z,25.90
2018-03-28T14:27:06.451Z,28.60
2018-03-28T14:29:34.191Z,28.50
2018-03-28T14:32:02.041Z,28.60
2018-03-28T14:34:30.788Z,30.30
2018-03-28T14:36:58.584Z,30.30
2018-03-28T14:39:27.162Z,31.70
2018-03-28T14:41:55.809Z,31.90
2018-03-28T14:44:23.580Z,31.90
2018-03-28T14:46:51.403Z,32.10
2018-03-28T14:49:19.331Z,31.70
2018-03-28T14:51:47.240Z,31.60
2018-03-28T14:54:15.270Z,32.70
2018-03-28T14:56:43.120Z,33.60
2018-03-28T14:59:10.886Z,33.30
2018-03-28T15:01:39.375Z,33.50
2018-03-28T15:04:07.210Z,33.50
2018-03-28T15:06:35.049Z,33.40
2018-03-28T15:09:02.864Z,33.40
2018-03-28T15:11:30.768Z,33.30
2018-03-28T15:13:59.280Z,33.20
2018-03-28T15:16:27.842Z,33.80
2018-03-28T15:18:56.477Z,33.10
2018-03-28T15:21:24.347Z,33.10
2018-03-28T15:23:52.344Z,32.10
2018-03-28T15:26:21.089Z,31.20
2018-03-28T15:28:48.933Z,31.20
2018-03-28T15:31:16.746Z,32.40
2018-03-28T15:33:44.716Z,32.80
2018-03-28T15:36:12.563Z,31.70
2018-03-28T15:38:40.497Z,31.20
2018-03-28T15:41:08.314Z,31.60
2018-03-28T15:43:36.401Z,31.40
2018-03-28T15:46:04.344Z,31.10
2018-03-28T15:48:32.274Z,30.40
2018-03-28T15:51:00.713Z,29.50
2018-03-28T15:53:28.477Z,28.50
2018-03-28T15:55:56.294Z,27.80
2018-03-28T15:58:24.140Z,28.00
2018-03-28T16:00:51.929Z,27.90
2018-03-28T16:03:19.836Z,27.40
2018-03-28T16:05:47.647Z,27.20
2018-03-28T16:08:15.393Z,26.50
2018-03-28T16:10:44.040Z,25.00
2018-03-28T16:13:11.956Z,24.90
2018-03-28T16:15:40.576Z,24.60
2018-03-28T16:18:08.539Z,24.60
2018-03-28T16:20:36.393Z,24.20
2018-03-28T16:23:04.395Z,23.00
2018-03-28T16:25:32.380Z,22.10
2018-03-28T16:28:00.218Z,21.00
2018-03-28T16:30:28.108Z,20.20
2018-03-28T16:32:55.944Z,19.50
2018-03-28T16:35:23.810Z,18.90
2018-03-28T16:37:51.638Z,18.10
2018-03-28T16:40:20.253Z,16.80
2018-03-28T16:42:48.055Z,16.80
2018-03-28T16:45:15.834Z,16.50
2018-03-28T16:47:43.824Z,16.50
2018-03-28T16:50:11.840Z,16.30
2018-03-28T16:52:39.765Z,16.10
2018-03-28T16:55:07.751Z,15.70
2018-03-28T16:57:35.615Z,15.30
2018-03-28T17:00:03.469Z,15.00
2018-03-28T17:02:31.514Z,14.80
2018-03-28T17:04:59.655Z,14.60
2018-03-28T17:07:28.860Z,14.50
2018-03-28T17:09:56.850Z,14.40
2018-03-28T17:12:24.763Z,14.30
2018-03-28T17:14:53.681Z,14.20
2018-03-28T17:17:21.566Z,14.20
2018-03-28T17:19:49.448Z,14.10
2018-03-28T17:22:17.404Z,14.20
2018-03-28T17:24:45.212Z,14.20
2018-03-28T17:27:13.722Z,14.20
2018-03-28T17:29:41.506Z,14.20
2018-03-28T17:32:09.373Z,14.10
2018-03-28T17:34:37.237Z,14.00
2018-03-28T17:37:05.017Z,13.80
2018-03-28T17:39:32.912Z,13.60
2018-03-28T17:42:01.541Z,13.50
2018-03-28T17:44:29.338Z,13.40
2018-03-28T17:46:57.292Z,13.40
2018-03-28T17:49:25.128Z,13.50
2018-03-28T17:51:53.015Z,13.40
2018-03-28T17:54:20.938Z,13.40
2018-03-28T17:56:48.895Z,13.30
2018-03-28T17:59:16.638Z,13.30
2018-03-28T18:01:45.206Z,13.30
2018-03-28T18:04:13.068Z,13.30
2018-03-28T18:06:40.929Z,13.20
2018-03-28T18:09:08.799Z,13.30
2018-03-28T18:11:36.748Z,13.20
2018-03-28T18:14:04.589Z,13.20
2018-03-28T18:16:33.236Z,13.20
2018-03-28T18:19:01.123Z,13.20
2018-03-28T18:21:29.075Z,13.20
2018-03-28T18:23:57.738Z,13.10
2018-03-28T18:26:25.611Z,13.10
2018-03-28T18:28:53.777Z,13.00
2018-03-28T18:31:21.716Z,13.00
2018-03-28T18:33:50.338Z,13.10
2018-03-28T18:36:18.164Z,13.00
2018-03-28T18:38:46.804Z,13.10
2018-03-28T18:41:14.647Z,13.00
2018-03-28T18:43:42.533Z,13.00
2018-03-28T18:46:10.412Z,12.90
2018-03-28T18:48:38.165Z,12.90
2018-03-28T18:51:06.024Z,12.80
2018-03-28T18:53:33.867Z,12.70
2018-03-28T18:56:01.698Z,12.70
2018-03-28T18:58:29.825Z,12.70
2018-03-28T19:00:57.740Z,12.80
2018-03-28T19:03:25.586Z,12.80
2018-03-28T19:05:53.348Z,12.70
2018-03-28T19:08:21.207Z,12.70
2018-03-28T19:10:49.064Z,12.70
2018-03-28T19:13:16.895Z,12.70
2018-03-28T19:15:44.763Z,12.70
2018-03-28T19:18:12.627Z,12.60
2018-03-28T19:20:40.459Z,12.50
2018-03-28T19:23:08.251Z,12.40
2018-03-28T19:25:36.814Z,12.20
2018-03-28T19:28:04.622Z,12.20
2018-03-28T19:30:32.529Z,12.20
2018-03-28T19:33:00.362Z,12.20
2018-03-28T19:35:28.215Z,12.20
2018-03-28T19:37:56.197Z,12.30
2018-03-28T19:40:24.020Z,12.30
2018-03-28T19:42:53.508Z,12.30
2018-03-28T19:45:21.585Z,12.30
2018-03-28T19:47:49.468Z,12.30
2018-03-28T19:50:18.030Z,12.20
2018-03-28T19:52:45.926Z,12.20
2018-03-28T19:55:13.933Z,12.10
2018-03-28T19:57:42.112Z,12.10
2018-03-28T20:00:10.121Z,11.90
2018-03-28T20:02:38.094Z,11.80
2018-03-28T20:05:06.725Z,11.70
2018-03-28T20:07:34.623Z,11.70
2018-03-28T20:10:02.384Z,11.70
2018-03-28T20:12:30.127Z,11.70
2018-03-28T20:14:58.127Z,11.70
2018-03-28T20:17:26.120Z,11.60
2018-03-28T20:19:54.788Z,11.50
2018-03-28T20:22:22.679Z,11.50
2018-03-28T20:24:51.283Z,11.50
2018-03-28T20:27:19.268Z,11.50
2018-03-28T20:29:47.207Z,11.40
2018-03-28T20:32:15.744Z,11.30
2018-03-28T20:34:43.568Z,11.30
2018-03-28T20:37:11.606Z,11.30
2018-03-28T20:39:39.430Z,11.20
2018-03-28T20:42:07.295Z,11.20
2018-03-28T20:44:35.161Z,11.20
2018-03-28T20:47:02.954Z,11.20
2018-03-28T20:49:30.769Z,11.20
2018-03-28T20:51:58.643Z,11.20
2018-03-28T20:54:26.567Z,11.30
2018-03-28T20:56:54.395Z,11.30
2018-03-28T20:59:22.322Z,11.40
2018-03-28T21:01:50.925Z,11.10
2018-03-28T21:04:18.709Z,11.10
2018-03-28T21:06:46.586Z,11.20
2018-03-28T21:09:14.441Z,11.20
2018-03-28T21:11:42.400Z,11.10
2018-03-28T21:14:10.333Z,11.10
2018-03-28T21:16:38.991Z,11.20
2018-03-28T21:19:07.187Z,11.20
2018-03-28T21:21:36.122Z,11.10
2018-03-28T21:24:04.357Z,11.10
2018-03-28T21:26:33.583Z,11.00
2018-03-28T21:29:01.581Z,11.00
2018-03-28T21:31:29.318Z,11.00
2018-03-28T21:33:57.633Z,11.00
2018-03-28T21:36:25.670Z,10.90
2018-03-28T21:38:53.615Z,10.90
2018-03-28T21:41:22.267Z,10.90
2018-03-28T21:43:50.340Z,10.90
2018-03-28T21:46:18.521Z,10.90
2018-03-28T21:48:46.275Z,10.90
2018-03-28T21:51:14.163Z,10.80
2018-03-28T21:53:41.956Z,10.80
2018-03-28T21:56:10.500Z,10.80
2018-03-28T21:58:38.931Z,10.80
2018-03-28T22:01:06.799Z,10.80
2018-03-28T22:03:34.745Z,10.80
2018-03-28T22:06:03.360Z,10.80
2018-03-28T22:08:31.174Z,10.80
2018-03-28T22:10:59.128Z,10.90
2018-03-28T22:13:27.399Z,10.80
2018-03-28T22:15:55.683Z,10.90
2018-03-28T22:18:23.564Z,10.90
2018-03-28T22:20:51.626Z,10.90
2018-03-28T22:23:19.492Z,10.90
2018-03-28T22:25:47.742Z,10.90
2018-03-28T22:28:15.653Z,10.90
2018-03-28T22:30:43.602Z,10.90
2018-03-28T22:33:11.559Z,10.90
2018-03-28T22:35:39.431Z,10.90
2018-03-28T22:38:07.510Z,10.90
2018-03-28T22:40:35.407Z,10.90
2018-03-28T22:43:04.093Z,10.90
2018-03-28T22:45:32.632Z,10.90
2018-03-28T22:48:00.510Z,10.90
2018-03-28T22:50:28.347Z,11.00
2018-03-28T22:52:56.247Z,10.90
2018-03-28T22:55:24.214Z,10.90
2018-03-28T22:57:52.197Z,11.00
2018-03-28T23:00:20.151Z,10.90
2018-03-28T23:02:48.051Z,10.90
2018-03-28T23:05:16.715Z,11.00
2018-03-28T23:07:45.276Z,11.00
2018-03-28T23:10:13.188Z,10.90
2018-03-28T23:12:41.782Z,11.00
2018-03-28T23:15:10.329Z,11.00
2018-03-28T23:17:38.222Z,10.90
2018-03-28T23:20:06.080Z,11.00
2018-03-28T23:22:38.847Z,10.80
2018-03-28T23:25:06.657Z,10.90
2018-03-28T23:27:34.574Z,10.90
2018-03-28T23:30:02.351Z,10.90
2018-03-28T23:32:30.147Z,10.80
2018-03-28T23:34:58.816Z,10.90
2018-03-28T23:37:26.588Z,10.80
2018-03-28T23:39:55.171Z,10.70
2018-03-28T23:42:23.784Z,10.70
2018-03-28T23:44:51.568Z,10.70
2018-03-28T23:47:19.404Z,10.70
2018-03-28T23:49:47.230Z,10.70
2018-03-28T23:52:15.062Z,10.70
2018-03-28T23:54:42.883Z,10.60
2018-03-28T23:57:11.452Z,10.50
2018-03-28T23:59:39.267Z,10.50
